createdAt,value
2022-08-05T00:02:07.588Z,45.01
2022-08-05T00:04:37.916Z,43.98
2022-08-05T00:07:27.114Z,43.84
2022-08-05T00:09:53.395Z,44.16
2022-08-05T00:12:21.270Z,44.95
2022-08-05T00:14:48.604Z,45.14
2022-08-05T00:17:19.576Z,44.83
2022-08-05T00:20:02.166Z,44.53
2022-08-05T00:22:29.395Z,43.75
2022-08-05T00:24:57.636Z,43.72
2022-08-05T00:27:35.939Z,43.93
2022-08-05T00:30:04.619Z,43.55
2022-08-05T00:32:31.388Z,42.88
2022-08-05T00:35:06.188Z,43.97
2022-08-05T00:37:51.222Z,41.08
2022-08-05T00:40:26.767Z,39.68
2022-08-05T00:42:57.430Z,38.86
2022-08-05T00:45:39.009Z,39.14
2022-08-05T00:48:14.803Z,40.46
2022-08-05T00:50:44.163Z,41.65
2022-08-05T00:53:45.320Z,42.68
2022-08-05T00:55:58.954Z,43.51
2022-08-05T00:58:27.580Z,42.96
2022-08-05T01:00:54.696Z,43.92
2022-08-05T01:03:22.514Z,44.39
2022-08-05T01:05:51.209Z,44.26
2022-08-05T01:08:42.323Z,44.51
2022-08-05T01:11:37.395Z,44.95
2022-08-05T01:14:11.774Z,45.17
2022-08-05T01:16:59.921Z,45.89
2022-08-05T01:20:01.682Z,46.11
2022-08-05T01:22:38.213Z,46.35
2022-08-05T01:25:19.510Z,46.32
2022-08-05T01:27:58.421Z,46.45
2022-08-05T01:30:34.734Z,46.29
2022-08-05T01:33:08.204Z,46.68
2022-08-05T01:35:51.085Z,46.74
2022-08-05T01:38:24.803Z,47.20
2022-08-05T01:40:58.699Z,47.48
2022-08-05T01:43:27.794Z,47.39
2022-08-05T01:45:56.891Z,47.54
2022-08-05T01:48:26.918Z,48.48
2022-08-05T01:50:56.701Z,48.95
2022-08-05T01:53:57.723Z,48.89
2022-08-05T01:58:10.383Z,49.31
2022-08-05T01:59:06.467Z,49.68
2022-08-05T02:01:39.862Z,50.34
2022-08-05T02:04:10.317Z,51.41
2022-08-05T02:06:39.111Z,51.21
2022-08-05T02:09:07.211Z,52.16
2022-08-05T02:11:52.182Z,52.12
2022-08-05T02:14:27.592Z,52.07
2022-08-05T02:16:56.937Z,52.80
2022-08-05T02:19:25.065Z,53.81
2022-08-05T02:21:59.513Z,54.25
2022-08-05T02:24:31.736Z,54.39
2022-08-05T02:27:10.163Z,55.03
2022-08-05T02:29:58.542Z,55.53
2022-08-05T02:32:30.828Z,56.03
2022-08-05T02:35:02.166Z,57.39
2022-08-05T02:37:42.981Z,57.86
2022-08-05T02:40:19.533Z,58.00
2022-08-05T02:42:53.075Z,58.25
2022-08-05T02:45:24.112Z,59.10
2022-08-05T02:48:09.917Z,58.77
2022-08-05T02:50:45.927Z,60.45
2022-08-05T02:53:16.193Z,60.74
2022-08-05T02:55:53.983Z,60.90
2022-08-05T02:58:27.616Z,61.17
2022-08-05T03:00:58.993Z,61.79
2022-08-05T03:03:28.430Z,61.14
2022-08-05T03:06:55.673Z,61.55
2022-08-05T03:08:52.218Z,61.45
2022-08-05T03:11:54.998Z,62.05
2022-08-05T03:14:13.532Z,62.07
2022-08-05T03:16:40.398Z,62.45
2022-08-05T03:19:17.143Z,63.65
2022-08-05T03:21:53.373Z,63.94
2022-08-05T03:24:29.297Z,63.83
2022-08-05T03:26:58.111Z,64.01
2022-08-05T03:29:24.627Z,63.19
2022-08-05T03:32:11.648Z,63.58
2022-08-05T03:34:38.676Z,63.98
2022-08-05T03:37:06.737Z,64.48
2022-08-05T03:39:38.105Z,65.29
2022-08-05T03:42:13.794Z,65.13
2022-08-05T03:44:42.537Z,66.63
2022-08-05T03:47:09.006Z,66.10
2022-08-05T03:49:51.808Z,67.47
2022-08-05T03:52:50.257Z,66.54
2022-08-05T03:56:05.867Z,66.35
2022-08-05T03:58:04.465Z,65.87
2022-08-05T04:00:32.390Z,65.62
2022-08-05T04:03:02.942Z,64.99
2022-08-05T04:05:34.566Z,65.48
2022-08-05T04:08:14.837Z,66.31
2022-08-05T04:10:55.444Z,66.35
2022-08-05T04:13:22.274Z,65.37
2022-08-05T04:15:52.874Z,65.86
2022-08-05T04:18:30.287Z,67.10
2022-08-05T04:20:57.930Z,66.64
2022-08-05T04:23:57.296Z,66.00
2022-08-05T04:26:14.615Z,65.71
2022-08-05T04:28:51.372Z,65.44
2022-08-05T04:31:19.683Z,66.38
2022-08-05T04:34:18.673Z,67.09
2022-08-05T04:36:45.295Z,66.76
2022-08-05T04:39:15.990Z,65.60
2022-08-05T04:41:42.507Z,65.52
2022-08-05T04:44:10.862Z,65.23
2022-08-05T04:46:38.606Z,66.14
2022-08-05T04:49:12.324Z,66.30
2022-08-05T04:51:45.134Z,66.14
2022-08-05T04:54:12.326Z,65.15
2022-08-05T04:56:39.248Z,63.46
2022-08-05T04:59:22.192Z,62.62
2022-08-05T05:02:35.222Z,61.79
2022-08-05T05:04:38.281Z,61.12
2022-08-05T05:07:10.543Z,60.22
2022-08-05T05:09:37.427Z,59.40
2022-08-05T05:12:06.321Z,59.31
2022-08-05T05:14:36.285Z,58.96
2022-08-05T05:17:03.385Z,59.78
2022-08-05T05:19:36.857Z,59.92
2022-08-05T05:22:23.590Z,57.99
2022-08-05T05:24:57.899Z,57.83
2022-08-05T05:27:41.323Z,59.15
2022-08-05T05:30:15.445Z,58.85
2022-08-05T05:32:55.488Z,59.16
2022-08-05T05:35:22.937Z,59.24
2022-08-05T05:37:59.432Z,58.71
2022-08-05T05:40:28.482Z,58.72
2022-08-05T05:42:55.369Z,59.55
2022-08-05T05:45:23.195Z,59.72
2022-08-05T05:48:05.536Z,59.70
2022-08-05T05:50:35.678Z,60.16
2022-08-05T05:53:21.226Z,60.05
2022-08-05T05:55:52.310Z,59.73
2022-08-05T05:58:32.105Z,58.88
2022-08-05T06:01:12.479Z,58.72
2022-08-05T06:04:00.614Z,59.07
2022-08-05T06:06:31.005Z,58.52
2022-08-05T06:09:00.103Z,57.15
2022-08-05T06:11:26.582Z,57.12
2022-08-05T06:13:55.878Z,56.16
2022-08-05T06:16:30.850Z,54.25
2022-08-05T06:19:02.073Z,54.04
2022-08-05T06:21:35.670Z,52.53
2022-08-05T06:24:03.157Z,51.56
2022-08-05T06:26:33.851Z,50.35
2022-08-05T06:29:03.513Z,49.78
2022-08-05T06:31:48.068Z,50.26
2022-08-05T06:34:17.513Z,48.37
2022-08-05T06:36:58.067Z,48.51
2022-08-05T06:39:27.365Z,48.53
2022-08-05T06:41:58.695Z,48.51
2022-08-05T06:44:25.612Z,47.92
2022-08-05T06:46:52.717Z,48.17
2022-08-05T06:49:50.577Z,48.05
2022-08-05T06:52:07.763Z,48.45
2022-08-05T06:54:54.232Z,47.94
2022-08-05T06:57:57.565Z,47.66
2022-08-05T07:00:09.834Z,47.34
2022-08-05T07:02:43.842Z,47.26
2022-08-05T07:05:14.340Z,46.61
2022-08-05T07:07:48.739Z,45.60
2022-08-05T07:10:16.376Z,45.00
2022-08-05T07:13:02.109Z,45.49
2022-08-05T07:16:01.644Z,46.25
2022-08-05T07:18:31.856Z,47.30
2022-08-05T07:20:58.631Z,47.25
2022-08-05T07:23:31.437Z,46.96
2022-08-05T07:25:57.981Z,47.64
2022-08-05T07:28:25.193Z,47.78
2022-08-05T07:30:54.794Z,48.01
2022-08-05T07:33:35.262Z,47.58
2022-08-05T07:36:21.246Z,46.94
2022-08-05T07:38:48.993Z,46.75
2022-08-05T07:42:13.039Z,47.00
2022-08-05T07:44:12.159Z,47.19
2022-08-05T07:46:48.281Z,46.61
2022-08-05T07:49:18.196Z,47.30
2022-08-05T07:51:53.976Z,46.53
2022-08-05T07:54:31.355Z,46.37
2022-08-05T07:57:41.997Z,45.20
2022-08-05T07:59:51.353Z,45.42
2022-08-05T08:02:18.265Z,45.28
2022-08-05T08:04:46.938Z,44.10
2022-08-05T08:07:13.891Z,44.77
2022-08-05T08:09:41.713Z,44.47
2022-08-05T08:12:27.486Z,44.80
2022-08-05T08:14:54.863Z,44.81
2022-08-05T08:17:21.866Z,44.30
2022-08-05T08:20:43.690Z,44.70
2022-08-05T08:22:35.488Z,44.73
2022-08-05T08:25:03.449Z,44.55
2022-08-05T08:27:40.419Z,44.01
2022-08-05T08:30:29.976Z,43.62
2022-08-05T08:33:02.733Z,42.50
2022-08-05T08:35:34.795Z,43.29
2022-08-05T08:38:01.918Z,43.12
2022-08-05T08:40:29.902Z,43.58
2022-08-05T08:42:58.023Z,43.49
2022-08-05T08:45:46.077Z,42.79
2022-08-05T08:48:36.121Z,42.69
2022-08-05T08:52:01.730Z,42.77
2022-08-05T08:53:50.110Z,42.87
2022-08-05T08:56:19.296Z,41.91
2022-08-05T08:58:48.949Z,42.25
2022-08-05T09:01:18.505Z,41.93
2022-08-05T09:03:54.270Z,41.71
2022-08-05T09:06:29.463Z,42.06
2022-08-05T09:08:58.727Z,41.69
2022-08-05T09:11:52.076Z,42.07
2022-08-05T09:14:59.038Z,41.57
2022-08-05T09:17:09.433Z,41.54
2022-08-05T09:20:01.712Z,40.98
2022-08-05T09:22:31.767Z,40.98
2022-08-05T09:25:00.628Z,41.20
2022-08-05T09:28:04.107Z,41.33
2022-08-05T09:30:23.451Z,41.17
2022-08-05T09:32:50.555Z,40.96
2022-08-05T09:35:26.282Z,40.85
2022-08-05T09:38:12.009Z,39.87
2022-08-05T09:40:51.970Z,39.20
2022-08-05T09:43:41.255Z,38.96
2022-08-05T09:46:35.037Z,39.05
2022-08-05T09:49:18.937Z,39.53
2022-08-05T09:51:48.893Z,39.04
2022-08-05T09:54:28.918Z,38.68
2022-08-05T09:56:55.914Z,38.05
2022-08-05T09:59:24.486Z,37.85
2022-08-05T10:01:58.016Z,38.21
2022-08-05T10:04:35.757Z,37.83
2022-08-05T10:07:19.672Z,37.96
2022-08-05T10:10:14.228Z,37.06
2022-08-05T10:12:55.012Z,37.37
2022-08-05T10:15:27.600Z,36.78
2022-08-05T10:18:12.884Z,36.74
2022-08-05T10:21:06.091Z,36.72
2022-08-05T10:23:59.529Z,36.50
2022-08-05T10:26:31.593Z,35.71
2022-08-05T10:28:59.720Z,35.59
2022-08-05T10:32:52.053Z,35.98
2022-08-05T10:34:13.634Z,35.80
2022-08-05T10:36:42.053Z,35.60
2022-08-05T10:39:14.956Z,35.12
2022-08-05T10:42:02.320Z,35.64
2022-08-05T10:44:32.242Z,35.33
2022-08-05T10:46:59.306Z,34.95
2022-08-05T10:49:33.374Z,35.07
2022-08-05T10:52:47.022Z,34.53
2022-08-05T10:55:18.498Z,34.49
2022-08-05T10:57:46.169Z,34.25
2022-08-05T11:00:23.115Z,34.40
2022-08-05T11:03:23.785Z,34.14
2022-08-05T11:06:16.276Z,34.41
2022-08-05T11:09:16.431Z,34.40
2022-08-05T11:11:53.469Z,34.01
2022-08-05T11:15:01.026Z,33.57
2022-08-05T11:17:59.859Z,33.54
2022-08-05T11:20:41.731Z,33.55
2022-08-05T11:23:33.558Z,33.19
2022-08-05T11:26:28.690Z,32.82
2022-08-05T11:29:06.568Z,32.35
2022-08-05T11:31:57.608Z,32.07
2022-08-05T11:34:51.738Z,31.82
2022-08-05T11:38:37.005Z,31.32
2022-08-05T11:41:03.410Z,31.38
2022-08-05T11:44:06.252Z,31.68
2022-08-05T11:46:58.276Z,32.00
2022-08-05T11:49:26.865Z,32.11
2022-08-05T11:51:54.852Z,32.57
2022-08-05T11:54:33.114Z,32.28
2022-08-05T11:57:08.325Z,32.63
2022-08-05T11:59:50.200Z,32.76
2022-08-05T12:02:24.269Z,32.59
2022-08-05T12:05:06.968Z,32.07
2022-08-05T12:08:07.309Z,32.40
2022-08-05T12:10:43.533Z,31.66
2022-08-05T12:13:47.259Z,31.80
2022-08-05T12:16:17.467Z,30.89
2022-08-05T12:18:52.105Z,31.31
2022-08-05T12:21:31.857Z,31.14
2022-08-05T12:24:14.018Z,31.29
2022-08-05T12:26:45.202Z,31.85
2022-08-05T12:29:23.635Z,31.90
2022-08-05T12:31:53.166Z,31.92
2022-08-05T12:34:23.919Z,32.12
2022-08-05T12:36:53.634Z,31.73
2022-08-05T12:39:20.884Z,31.89
2022-08-05T12:41:48.784Z,31.36
2022-08-05T12:44:28.634Z,31.46
2022-08-05T12:47:01.986Z,31.22
2022-08-05T12:50:04.221Z,31.10
2022-08-05T12:52:39.230Z,31.36
2022-08-05T12:55:25.435Z,31.05
2022-08-05T12:58:50.147Z,31.01
2022-08-05T13:02:03.464Z,30.29
2022-08-05T13:03:32.198Z,30.65
2022-08-05T13:06:01.504Z,31.56
2022-08-05T13:08:32.278Z,30.50
2022-08-05T13:11:04.312Z,31.68
2022-08-05T13:14:05.669Z,31.14
2022-08-05T13:16:19.515Z,31.37
2022-08-05T13:18:55.026Z,30.98
2022-08-05T13:21:22.020Z,30.68
2022-08-05T13:23:54.500Z,30.25
2022-08-05T13:26:27.253Z,31.67
2022-08-05T13:28:57.328Z,31.65
2022-08-05T13:31:34.018Z,31.74
2022-08-05T13:34:24.964Z,31.34
2022-08-05T13:36:54.021Z,32.05
2022-08-05T13:40:13.438Z,31.93
2022-08-05T13:42:14.470Z,32.32
2022-08-05T13:44:45.889Z,32.11
2022-08-05T13:47:34.724Z,31.75
2022-08-05T13:50:04.664Z,32.26
2022-08-05T13:52:35.359Z,33.21
2022-08-05T13:55:02.929Z,33.68
2022-08-05T13:57:51.412Z,33.04
2022-08-05T14:00:27.482Z,33.97
2022-08-05T14:02:56.066Z,33.84
2022-08-05T14:05:48.278Z,34.30
2022-08-05T14:08:11.115Z,34.35
2022-08-05T14:10:47.697Z,33.62
2022-08-05T14:13:15.339Z,32.56
2022-08-05T14:16:08.646Z,32.15
2022-08-05T14:18:28.601Z,32.12
2022-08-05T14:20:55.395Z,31.02
2022-08-05T14:23:25.650Z,32.06
2022-08-05T14:25:57.793Z,31.16
2022-08-05T14:28:29.894Z,31.10
2022-08-05T14:31:01.498Z,30.37
2022-08-05T14:33:32.575Z,31.06
2022-08-05T14:36:15.092Z,31.28
2022-08-05T14:38:41.610Z,32.43
2022-08-05T14:41:08.233Z,31.72
2022-08-05T14:43:58.863Z,30.94
2022-08-05T14:46:28.087Z,32.21
2022-08-05T14:49:06.680Z,33.27
2022-08-05T14:51:42.475Z,35.28
2022-08-05T14:54:29.977Z,36.03
2022-08-05T14:56:57.010Z,35.50
2022-08-05T14:59:23.599Z,35.81
2022-08-05T15:01:50.377Z,37.28
2022-08-05T15:04:20.658Z,37.49
2022-08-05T15:06:50.049Z,39.10
2022-08-05T15:09:52.867Z,38.15
2022-08-05T15:12:09.063Z,37.41
2022-08-05T15:14:48.356Z,37.14
2022-08-05T15:17:46.124Z,38.46
2022-08-05T15:20:15.648Z,38.84
2022-08-05T15:22:45.328Z,39.08
2022-08-05T15:25:14.005Z,39.63
2022-08-05T15:27:42.949Z,40.76
2022-08-05T15:30:19.329Z,41.91
2022-08-05T15:32:46.261Z,42.18
2022-08-05T15:35:12.884Z,42.97
2022-08-05T15:38:34.708Z,43.62
2022-08-05T15:40:59.836Z,43.38
2022-08-05T15:43:20.454Z,43.20
2022-08-05T15:45:48.006Z,43.98
2022-08-05T15:48:27.056Z,44.55
2022-08-05T15:50:53.539Z,43.04
2022-08-05T15:53:22.821Z,41.51
2022-08-05T15:56:01.485Z,42.34
2022-08-05T15:58:29.924Z,41.40
2022-08-05T16:01:15.749Z,40.13
2022-08-05T16:03:43.537Z,38.80
2022-08-05T16:06:11.495Z,38.75
2022-08-05T16:08:38.557Z,41.86
2022-08-05T16:11:05.296Z,43.03
2022-08-05T16:13:34.207Z,43.63
2022-08-05T16:16:02.021Z,43.26
2022-08-05T16:18:30.037Z,41.60
2022-08-05T16:20:56.515Z,39.38
2022-08-05T16:23:23.069Z,40.38
2022-08-05T16:25:49.871Z,40.12
2022-08-05T16:28:22.454Z,39.96
2022-08-05T16:30:52.042Z,40.29
2022-08-05T16:33:19.409Z,40.71
2022-08-05T16:35:49.898Z,42.87
2022-08-05T16:38:25.229Z,42.40
2022-08-05T16:40:59.687Z,43.25
2022-08-05T16:43:32.672Z,43.63
2022-08-05T16:46:04.071Z,45.28
2022-08-05T16:48:35.808Z,44.56
2022-08-05T16:51:02.533Z,45.27
2022-08-05T16:54:06.230Z,45.97
2022-08-05T16:56:22.748Z,46.67
2022-08-05T16:58:50.354Z,46.44
2022-08-05T17:01:16.916Z,46.59
2022-08-05T17:03:45.487Z,46.41
2022-08-05T17:06:12.708Z,45.84
2022-08-05T17:08:53.329Z,45.94
2022-08-05T17:11:25.147Z,46.50
2022-08-05T17:14:00.655Z,45.73
2022-08-05T17:16:36.139Z,45.42
2022-08-05T17:19:07.073Z,45.94
2022-08-05T17:21:36.212Z,46.80
2022-08-05T17:24:19.778Z,46.82
2022-08-05T17:26:56.092Z,47.81
2022-08-05T17:29:33.749Z,48.16
2022-08-05T17:32:11.875Z,50.67
2022-08-05T17:34:43.575Z,51.51
2022-08-05T17:37:35.884Z,52.18
2022-08-05T17:39:59.848Z,52.85
2022-08-05T17:42:30.118Z,54.41
2022-08-05T17:44:59.397Z,54.39
2022-08-05T17:47:26.683Z,54.14
2022-08-05T17:50:03.503Z,55.09
2022-08-05T17:52:34.703Z,54.99
2022-08-05T17:55:20.758Z,55.80
2022-08-05T17:57:50.039Z,56.08
2022-08-05T18:00:17.538Z,56.58
2022-08-05T18:02:46.664Z,57.09
2022-08-05T18:05:13.779Z,57.24
2022-08-05T18:07:44.426Z,56.65
2022-08-05T18:10:14.121Z,58.40
2022-08-05T18:12:48.929Z,58.41
2022-08-05T18:15:15.545Z,58.71
2022-08-05T18:17:58.811Z,58.48
2022-08-05T18:20:31.904Z,58.36
2022-08-05T18:23:09.164Z,58.61
2022-08-05T18:25:38.948Z,59.30
2022-08-05T18:28:09.410Z,59.97
2022-08-05T18:30:39.183Z,59.95
2022-08-05T18:33:08.378Z,59.62
2022-08-05T18:36:00.774Z,59.11
2022-08-05T18:38:26.317Z,59.55
2022-08-05T18:41:53.250Z,59.87
2022-08-05T18:43:43.024Z,60.07
2022-08-05T18:46:19.719Z,59.87
2022-08-05T18:48:52.341Z,59.27
2022-08-05T18:52:04.447Z,58.60
2022-08-05T18:54:31.329Z,58.17
2022-08-05T18:57:01.138Z,56.92
2022-08-05T18:59:44.229Z,56.65
2022-08-05T19:02:27.948Z,55.85
2022-08-05T19:05:02.354Z,57.11
2022-08-05T19:07:46.021Z,55.06
2022-08-05T19:10:14.688Z,55.71
2022-08-05T19:12:41.448Z,55.12
2022-08-05T19:15:25.251Z,56.09
2022-08-05T19:18:09.163Z,61.31
2022-08-05T19:20:41.314Z,69.63
2022-08-05T19:24:03.588Z,74.18
2022-08-05T19:26:02.070Z,79.68
2022-08-05T19:28:30.714Z,87.10
2022-08-05T19:30:57.480Z,87.87
2022-08-05T19:33:36.255Z,94.71
2022-08-05T19:36:06.948Z,94.77
2022-08-05T19:38:37.077Z,98.93
2022-08-05T19:41:07.373Z,99.10
2022-08-05T19:44:05.805Z,100.00
2022-08-05T19:46:29.017Z,100.00
2022-08-05T19:49:01.295Z,99.31
2022-08-05T19:52:06.062Z,97.79
2022-08-05T19:54:28.468Z,96.69
2022-08-05T19:56:59.108Z,98.59
2022-08-05T19:59:55.859Z,95.28
2022-08-05T20:02:14.469Z,93.53
2022-08-05T20:04:43.032Z,92.61
2022-08-05T20:07:13.827Z,97.75
2022-08-05T20:09:53.653Z,96.18
2022-08-05T20:12:23.453Z,94.55
2022-08-05T20:14:52.045Z,95.17
2022-08-05T20:17:19.891Z,91.14
2022-08-05T20:19:50.854Z,88.45
2022-08-05T20:22:23.943Z,88.39
2022-08-05T20:24:53.859Z,89.57
2022-08-05T20:27:21.016Z,89.30
2022-08-05T20:29:58.210Z,88.70
2022-08-05T20:32:26.701Z,84.63
2022-08-05T20:34:53.484Z,83.74
2022-08-05T20:38:05.892Z,85.50
2022-08-05T20:40:07.405Z,83.26
2022-08-05T20:42:34.518Z,79.70
2022-08-05T20:45:02.563Z,78.80
2022-08-05T20:47:32.240Z,81.63
2022-08-05T20:49:59.571Z,80.63
2022-08-05T20:52:29.368Z,81.96
2022-08-05T20:55:54.215Z,83.32
2022-08-05T20:57:44.250Z,82.52
2022-08-05T21:00:34.982Z,85.54
2022-08-05T21:03:06.942Z,79.22
2022-08-05T21:05:47.690Z,85.20
2022-08-05T21:08:21.316Z,82.12
2022-08-05T21:10:54.846Z,85.13
2022-08-05T21:13:47.019Z,84.37
2022-08-05T21:16:11.895Z,82.33
2022-08-05T21:18:38.591Z,85.47
2022-08-05T21:21:11.969Z,84.99
2022-08-05T21:23:38.964Z,87.25
2022-08-05T21:26:12.363Z,87.69
2022-08-05T21:28:40.141Z,87.09
2022-08-05T21:31:17.314Z,87.94
2022-08-05T21:33:43.811Z,86.71
2022-08-05T21:36:14.538Z,83.42
2022-08-05T21:38:54.750Z,81.58
2022-08-05T21:41:21.409Z,81.57
2022-08-05T21:44:01.769Z,77.11
2022-08-05T21:46:32.172Z,77.39
2022-08-05T21:49:01.642Z,80.85
2022-08-05T21:52:22.856Z,74.99
2022-08-05T21:54:14.915Z,75.68
2022-08-05T21:56:44.566Z,72.98
2022-08-05T21:59:22.596Z,73.06
2022-08-05T22:01:51.578Z,74.06
2022-08-05T22:04:21.309Z,71.06
2022-08-05T22:06:52.595Z,72.53
2022-08-05T22:09:21.037Z,70.22
2022-08-05T22:11:49.142Z,69.87
2022-08-05T22:14:34.218Z,68.36
2022-08-05T22:17:05.072Z,71.39
2022-08-05T22:20:03.575Z,67.72
2022-08-05T22:22:26.811Z,69.42
2022-08-05T22:25:21.608Z,68.01
2022-08-05T22:28:04.990Z,69.74
2022-08-05T22:30:43.930Z,66.18
2022-08-05T22:33:57.169Z,66.75
2022-08-05T22:36:14.704Z,63.53
2022-08-05T22:38:42.782Z,64.74
2022-08-05T22:41:10.181Z,63.35
2022-08-05T22:43:38.183Z,64.09
2022-08-05T22:46:13.390Z,64.54
2022-08-05T22:48:47.749Z,64.14
2022-08-05T22:51:15.770Z,61.74
2022-08-05T22:53:49.962Z,60.85
2022-08-05T22:56:17.029Z,61.47
2022-08-05T22:58:43.809Z,59.10
2022-08-05T23:01:10.526Z,60.00
2022-08-05T23:03:59.107Z,59.17
2022-08-05T23:06:26.220Z,59.53
2022-08-05T23:08:52.949Z,58.52
2022-08-05T23:11:19.475Z,58.53
2022-08-05T23:13:45.922Z,58.94
2022-08-05T23:16:33.223Z,57.90
2022-08-05T23:19:00.159Z,59.54
2022-08-05T23:21:43.048Z,57.33
2022-08-05T23:24:14.812Z,57.30
2022-08-05T23:26:41.832Z,57.56
2022-08-05T23:29:10.691Z,58.39
2022-08-05T23:31:42.450Z,57.75
2022-08-05T23:34:08.982Z,57.49
2022-08-05T23:36:39.848Z,57.81
2022-08-05T23:39:17.278Z,58.59
2022-08-05T23:41:50.688Z,58.51
2022-08-05T23:44:17.232Z,57.55
2022-08-05T23:46:46.549Z,57.72
2022-08-05T23:49:16.206Z,57.61
2022-08-05T23:52:02.612Z,57.39
2022-08-05T23:54:34.226Z,57.71
2022-08-05T23:57:05.277Z,57.21
